createdAt,value
2023-03-17T00:02:05.041Z,74.55
2023-03-17T00:04:33.566Z,74.49
2023-03-17T00:07:01.491Z,74.59
2023-03-17T00:09:29.260Z,74.72
2023-03-17T00:11:57.102Z,74.91
2023-03-17T00:14:24.989Z,74.87
2023-03-17T00:16:53.318Z,74.99
2023-03-17T00:19:33.127Z,75.20
2023-03-17T00:22:01.638Z,75.37
2023-03-17T00:24:31.210Z,75.20
2023-03-17T00:26:59.823Z,75.38
2023-03-17T00:29:28.107Z,75.43
2023-03-17T00:31:57.858Z,75.75
2023-03-17T00:34:25.763Z,75.76
2023-03-17T00:36:53.629Z,75.81
2023-03-17T00:39:25.662Z,75.86
2023-03-17T00:41:55.617Z,75.81
2023-03-17T00:44:24.301Z,75.94
2023-03-17T00:46:54.180Z,76.08
2023-03-17T00:49:24.852Z,75.99
2023-03-17T00:51:52.804Z,76.07
2023-03-17T00:54:23.394Z,76.11
2023-03-17T00:56:52.727Z,76.16
2023-03-17T00:59:30.117Z,76.27
2023-03-17T01:01:58.212Z,76.39
2023-03-17T01:04:26.247Z,76.84
2023-03-17T01:06:54.602Z,76.69
2023-03-17T01:09:27.071Z,76.74
2023-03-17T01:11:55.925Z,76.63
2023-03-17T01:14:25.013Z,76.94
2023-03-17T01:16:53.345Z,77.06
2023-03-17T01:19:22.159Z,77.06
2023-03-17T01:21:50.336Z,77.00
2023-03-17T01:24:18.786Z,76.85
2023-03-17T01:26:47.192Z,76.97
2023-03-17T01:29:16.613Z,77.03
2023-03-17T01:31:46.317Z,76.94
2023-03-17T01:34:14.250Z,76.92
2023-03-17T01:36:43.938Z,76.96
2023-03-17T01:39:13.003Z,77.02
2023-03-17T01:41:41.029Z,77.32
2023-03-17T01:44:17.009Z,77.53
2023-03-17T01:46:47.571Z,77.52
2023-03-17T01:49:30.440Z,77.58
2023-03-17T01:52:04.571Z,77.69
2023-03-17T01:54:50.550Z,77.69
2023-03-17T01:57:21.510Z,77.85
2023-03-17T01:59:53.121Z,77.82
2023-03-17T02:02:26.177Z,77.94
2023-03-17T02:04:54.433Z,77.92
2023-03-17T02:07:24.512Z,78.36
2023-03-17T02:09:53.699Z,78.41
2023-03-17T02:12:24.028Z,78.42
2023-03-17T02:14:52.930Z,78.41
2023-03-17T02:17:23.107Z,78.42
2023-03-17T02:19:51.988Z,78.39
2023-03-17T02:22:20.610Z,78.58
2023-03-17T02:24:53.106Z,78.69
2023-03-17T02:27:31.238Z,78.52
2023-03-17T02:29:59.907Z,78.76
2023-03-17T02:32:27.793Z,78.64
2023-03-17T02:34:56.586Z,78.78
2023-03-17T02:37:24.551Z,78.74
2023-03-17T02:39:53.901Z,78.99
2023-03-17T02:42:22.224Z,78.75
2023-03-17T02:44:50.772Z,79.10
2023-03-17T02:47:21.710Z,78.96
2023-03-17T02:49:50.223Z,78.97
2023-03-17T02:52:18.040Z,78.93
2023-03-17T02:54:45.867Z,78.73
2023-03-17T02:57:13.679Z,78.69
2023-03-17T02:59:41.743Z,78.93
2023-03-17T03:02:10.091Z,78.77
2023-03-17T03:04:38.093Z,78.82
2023-03-17T03:07:06.226Z,78.96
2023-03-17T03:09:34.462Z,78.93
2023-03-17T03:12:02.901Z,78.96
2023-03-17T03:14:32.581Z,79.21
2023-03-17T03:17:00.486Z,79.26
2023-03-17T03:19:28.467Z,79.28
2023-03-17T03:21:56.887Z,79.43
2023-03-17T03:24:24.716Z,79.16
2023-03-17T03:26:52.683Z,79.20
2023-03-17T03:29:20.757Z,79.34
2023-03-17T03:31:48.938Z,79.40
2023-03-17T03:34:16.797Z,79.48
2023-03-17T03:36:44.812Z,79.56
2023-03-17T03:39:14.517Z,79.52
2023-03-17T03:41:42.559Z,79.49
2023-03-17T03:44:10.707Z,79.67
2023-03-17T03:46:38.534Z,79.62
2023-03-17T03:49:06.489Z,79.80
2023-03-17T03:51:34.423Z,79.87
2023-03-17T03:54:02.329Z,79.48
2023-03-17T03:56:30.381Z,79.55
2023-03-17T03:58:58.195Z,79.67
2023-03-17T04:01:26.036Z,79.72
2023-03-17T04:03:53.878Z,79.74
2023-03-17T04:06:21.812Z,79.97
2023-03-17T04:08:49.883Z,79.81
2023-03-17T04:11:18.071Z,80.05
2023-03-17T04:13:45.915Z,80.23
2023-03-17T04:16:13.831Z,80.47
2023-03-17T04:18:41.738Z,80.72
2023-03-17T04:21:09.691Z,80.72
2023-03-17T04:23:38.041Z,80.83
2023-03-17T04:26:06.041Z,81.07
2023-03-17T04:28:33.888Z,81.18
2023-03-17T04:31:02.012Z,81.36
2023-03-17T04:33:29.874Z,81.03
2023-03-17T04:35:58.680Z,80.98
2023-03-17T04:38:26.863Z,81.38
2023-03-17T04:40:54.895Z,81.34
2023-03-17T04:43:22.690Z,81.24
2023-03-17T04:45:50.914Z,81.59
2023-03-17T04:48:18.724Z,81.35
2023-03-17T04:50:48.025Z,81.35
2023-03-17T04:53:15.980Z,81.24
2023-03-17T04:55:44.281Z,81.57
2023-03-17T04:58:21.091Z,81.46
2023-03-17T05:00:56.201Z,81.72
2023-03-17T05:03:27.699Z,81.63
2023-03-17T05:05:59.646Z,81.55
2023-03-17T05:08:28.609Z,81.53
2023-03-17T05:10:58.491Z,81.79
2023-03-17T05:13:27.332Z,81.82
2023-03-17T05:15:56.480Z,81.66
2023-03-17T05:18:25.734Z,81.82
2023-03-17T05:20:53.674Z,81.52
2023-03-17T05:23:23.032Z,81.69
2023-03-17T05:25:51.236Z,81.85
2023-03-17T05:28:22.599Z,81.68
2023-03-17T05:30:50.814Z,81.64
2023-03-17T05:33:19.312Z,81.62
2023-03-17T05:35:47.668Z,81.38
2023-03-17T05:38:16.147Z,81.60
2023-03-17T05:40:44.877Z,81.69
2023-03-17T05:43:14.331Z,81.67
2023-03-17T05:45:42.491Z,81.65
2023-03-17T05:48:12.485Z,81.67
2023-03-17T05:50:41.872Z,81.82
2023-03-17T05:53:10.812Z,81.57
2023-03-17T05:55:39.126Z,81.69
2023-03-17T05:58:08.016Z,81.64
2023-03-17T06:00:37.813Z,81.65
2023-03-17T06:03:06.545Z,81.68
2023-03-17T06:05:35.722Z,81.59
2023-03-17T06:08:05.829Z,81.53
2023-03-17T06:10:34.152Z,81.63
2023-03-17T06:13:03.949Z,81.73
2023-03-17T06:15:34.068Z,81.59
2023-03-17T06:18:05.377Z,81.55
2023-03-17T06:20:34.191Z,81.79
2023-03-17T06:23:05.307Z,81.61
2023-03-17T06:25:35.956Z,82.07
2023-03-17T06:28:05.741Z,82.10
2023-03-17T06:30:38.169Z,82.13
2023-03-17T06:33:08.725Z,82.02
2023-03-17T06:35:37.450Z,81.92
2023-03-17T06:38:05.511Z,81.96
2023-03-17T06:40:34.271Z,81.87
2023-03-17T06:43:03.194Z,81.83
2023-03-17T06:45:33.217Z,81.79
2023-03-17T06:48:02.486Z,81.90
2023-03-17T06:50:30.504Z,81.93
2023-03-17T06:52:58.450Z,81.78
2023-03-17T06:55:27.565Z,81.90
2023-03-17T06:57:55.717Z,82.22
2023-03-17T07:00:23.969Z,82.31
2023-03-17T07:02:52.750Z,82.26
2023-03-17T07:05:20.831Z,81.84
2023-03-17T07:07:49.725Z,81.68
2023-03-17T07:10:18.464Z,81.51
2023-03-17T07:12:46.403Z,81.54
2023-03-17T07:15:14.408Z,81.22
2023-03-17T07:17:42.738Z,81.15
2023-03-17T07:20:11.924Z,81.47
2023-03-17T07:22:41.355Z,81.27
2023-03-17T07:25:11.055Z,81.15
2023-03-17T07:27:39.101Z,81.30
2023-03-17T07:30:08.322Z,81.17
2023-03-17T07:32:36.449Z,80.74
2023-03-17T07:35:05.813Z,80.53
2023-03-17T07:37:34.054Z,80.63
2023-03-17T07:40:02.353Z,80.47
2023-03-17T07:42:30.220Z,80.17
2023-03-17T07:44:58.298Z,80.09
2023-03-17T07:47:26.245Z,79.98
2023-03-17T07:49:54.966Z,79.71
2023-03-17T07:52:22.819Z,79.27
2023-03-17T07:54:52.312Z,79.11
2023-03-17T07:57:20.260Z,78.57
2023-03-17T07:59:48.230Z,78.51
2023-03-17T08:02:17.811Z,78.45
2023-03-17T08:04:46.065Z,77.60
2023-03-17T08:07:15.690Z,76.99
2023-03-17T08:09:43.720Z,76.57
2023-03-17T08:12:11.975Z,76.73
2023-03-17T08:14:41.504Z,76.14
2023-03-17T08:17:10.640Z,75.95
2023-03-17T08:19:38.658Z,74.81
2023-03-17T08:22:06.961Z,74.51
2023-03-17T08:24:35.466Z,73.89
2023-03-17T08:27:04.214Z,73.22
2023-03-17T08:29:32.165Z,72.85
2023-03-17T08:32:00.032Z,72.30
2023-03-17T08:34:28.447Z,71.90
2023-03-17T08:36:56.802Z,71.46
2023-03-17T08:39:24.628Z,71.55
2023-03-17T08:41:53.050Z,70.58
2023-03-17T08:44:22.014Z,69.83
2023-03-17T08:46:51.479Z,69.39
2023-03-17T08:49:19.397Z,68.99
2023-03-17T08:51:47.674Z,68.55
2023-03-17T08:54:15.985Z,67.95
2023-03-17T08:56:43.831Z,67.72
2023-03-17T08:59:12.597Z,66.78
2023-03-17T09:01:40.508Z,66.69
2023-03-17T09:04:09.149Z,66.32
2023-03-17T09:06:38.812Z,65.98
2023-03-17T09:09:07.749Z,65.42
2023-03-17T09:11:35.575Z,65.28
2023-03-17T09:14:03.813Z,64.73
2023-03-17T09:16:34.322Z,64.61
2023-03-17T09:19:03.924Z,64.38
2023-03-17T09:21:32.117Z,64.19
2023-03-17T09:24:02.462Z,64.05
2023-03-17T09:26:30.695Z,64.09
2023-03-17T09:28:58.681Z,63.82
2023-03-17T09:31:26.820Z,63.61
2023-03-17T09:33:55.121Z,63.44
2023-03-17T09:36:23.706Z,63.16
2023-03-17T09:38:52.384Z,63.18
2023-03-17T09:41:30.231Z,63.26
2023-03-17T09:44:23.131Z,62.37
2023-03-17T09:47:04.940Z,61.26
2023-03-17T09:49:38.760Z,61.13
2023-03-17T09:52:13.482Z,61.06
2023-03-17T09:54:42.250Z,60.99
2023-03-17T09:57:19.299Z,60.74
2023-03-17T09:59:53.620Z,60.40
2023-03-17T10:02:24.479Z,60.21
2023-03-17T10:04:52.619Z,59.38
2023-03-17T10:07:39.085Z,59.48
2023-03-17T10:10:28.099Z,58.81
2023-03-17T10:13:07.002Z,58.29
2023-03-17T10:15:42.221Z,57.68
2023-03-17T10:18:16.727Z,56.84
2023-03-17T10:20:52.240Z,57.26
2023-03-17T10:23:36.311Z,57.01
2023-03-17T10:26:32.903Z,56.49
2023-03-17T10:29:04.386Z,56.64
2023-03-17T10:31:35.582Z,56.62
2023-03-17T10:34:17.745Z,56.46
2023-03-17T10:36:53.787Z,56.08
2023-03-17T10:39:24.776Z,55.15
2023-03-17T10:42:09.254Z,55.55
2023-03-17T10:45:01.416Z,55.17
2023-03-17T10:47:33.401Z,55.08
2023-03-17T10:50:21.112Z,54.85
2023-03-17T10:52:57.909Z,54.25
2023-03-17T10:55:28.221Z,54.05
2023-03-17T10:58:15.388Z,53.80
2023-03-17T11:00:57.596Z,54.07
2023-03-17T11:03:29.422Z,53.80
2023-03-17T11:06:10.253Z,52.96
2023-03-17T11:08:51.114Z,53.14
2023-03-17T11:11:37.906Z,52.91
2023-03-17T11:14:14.276Z,52.30
2023-03-17T11:17:16.718Z,51.88
2023-03-17T11:20:11.977Z,51.83
2023-03-17T11:22:43.072Z,51.48
2023-03-17T11:25:17.456Z,51.73
2023-03-17T11:27:51.401Z,51.10
2023-03-17T11:31:09.523Z,51.49
2023-03-17T11:33:55.227Z,50.97
2023-03-17T11:36:45.355Z,50.82
2023-03-17T11:39:24.323Z,50.30
2023-03-17T11:41:58.331Z,50.97
2023-03-17T11:44:40.535Z,50.32
2023-03-17T11:47:27.085Z,49.97
2023-03-17T11:50:08.361Z,49.38
2023-03-17T11:52:48.512Z,48.82
2023-03-17T11:55:22.504Z,48.72
2023-03-17T11:58:00.194Z,49.00
2023-03-17T12:00:43.816Z,48.61
2023-03-17T12:03:22.093Z,48.63
2023-03-17T12:05:55.819Z,48.69
2023-03-17T12:08:36.086Z,48.22
2023-03-17T12:11:10.685Z,48.30
2023-03-17T12:13:45.539Z,48.11
2023-03-17T12:16:22.750Z,48.23
2023-03-17T12:19:16.617Z,47.80
2023-03-17T12:22:19.062Z,48.24
2023-03-17T12:25:16.643Z,47.41
2023-03-17T12:27:54.531Z,47.43
2023-03-17T12:30:33.233Z,47.54
2023-03-17T12:33:30.316Z,46.97
2023-03-17T12:36:00.754Z,47.23
2023-03-17T12:38:47.044Z,46.91
2023-03-17T12:41:33.690Z,46.76
2023-03-17T12:44:08.211Z,46.41
2023-03-17T12:47:04.604Z,45.69
2023-03-17T12:50:20.074Z,45.99
2023-03-17T12:53:09.947Z,45.76
2023-03-17T12:55:38.816Z,46.03
2023-03-17T12:58:27.287Z,45.55
2023-03-17T13:01:32.415Z,45.56
2023-03-17T13:04:05.781Z,45.38
2023-03-17T13:06:43.036Z,45.06
2023-03-17T13:09:32.982Z,45.16
2023-03-17T13:12:02.613Z,45.00
2023-03-17T13:14:44.529Z,44.76
2023-03-17T13:17:23.971Z,44.12
2023-03-17T13:19:59.408Z,44.39
2023-03-17T13:22:37.761Z,44.31
2023-03-17T13:25:32.402Z,44.65
2023-03-17T13:28:12.804Z,44.88
2023-03-17T13:30:41.340Z,44.51
2023-03-17T13:33:12.437Z,44.28
2023-03-17T13:35:53.600Z,44.01
2023-03-17T13:39:15.070Z,43.82
2023-03-17T13:42:17.636Z,43.68
2023-03-17T13:45:08.452Z,43.88
2023-03-17T13:47:40.293Z,43.80
2023-03-17T13:50:25.484Z,43.58
2023-03-17T13:53:01.757Z,43.84
2023-03-17T13:55:35.108Z,43.74
2023-03-17T13:58:11.592Z,43.48
2023-03-17T14:00:43.788Z,43.45
2023-03-17T14:03:23.224Z,43.15
2023-03-17T14:05:52.748Z,42.90
2023-03-17T14:08:33.866Z,43.01
2023-03-17T14:11:06.786Z,42.24
2023-03-17T14:13:40.615Z,42.67
2023-03-17T14:16:21.352Z,42.63
2023-03-17T14:18:54.018Z,42.62
2023-03-17T14:21:30.507Z,42.87
2023-03-17T14:24:01.541Z,42.25
2023-03-17T14:26:32.456Z,42.54
2023-03-17T14:29:04.917Z,42.37
2023-03-17T14:31:32.802Z,42.33
2023-03-17T14:34:01.521Z,42.53
2023-03-17T14:36:34.617Z,42.31
2023-03-17T14:39:02.608Z,42.55
2023-03-17T14:41:32.226Z,42.82
2023-03-17T14:44:02.102Z,42.75
2023-03-17T14:46:41.228Z,42.43
2023-03-17T14:49:20.985Z,42.60
2023-03-17T14:51:51.768Z,42.23
2023-03-17T14:54:26.791Z,42.65
2023-03-17T14:57:02.317Z,42.68
2023-03-17T14:59:53.618Z,42.59
2023-03-17T15:02:28.065Z,42.41
2023-03-17T15:04:59.504Z,42.48
2023-03-17T15:07:37.970Z,42.72
2023-03-17T15:10:17.208Z,42.33
2023-03-17T15:12:46.862Z,42.40
2023-03-17T15:15:27.188Z,42.37
2023-03-17T15:17:59.474Z,42.46
2023-03-17T15:20:31.680Z,42.40
2023-03-17T15:23:04.246Z,42.20
2023-03-17T15:25:37.526Z,42.46
2023-03-17T15:28:16.905Z,42.59
2023-03-17T15:30:48.390Z,42.60
2023-03-17T15:33:22.561Z,42.50
2023-03-17T15:35:51.187Z,42.49
2023-03-17T15:38:19.461Z,42.80
2023-03-17T15:40:47.703Z,42.47
2023-03-17T15:43:17.056Z,42.72
2023-03-17T15:45:45.984Z,42.70
2023-03-17T15:48:25.821Z,43.03
2023-03-17T15:50:56.891Z,42.86
2023-03-17T15:53:24.888Z,43.08
2023-03-17T15:55:53.465Z,42.83
2023-03-17T15:58:21.255Z,42.81
2023-03-17T16:00:59.266Z,42.74
2023-03-17T16:03:33.409Z,42.62
2023-03-17T16:06:04.376Z,43.01
2023-03-17T16:08:32.173Z,43.02
2023-03-17T16:11:00.310Z,43.45
2023-03-17T16:13:28.118Z,43.28
2023-03-17T16:15:59.111Z,43.44
2023-03-17T16:18:34.255Z,43.86
2023-03-17T16:21:04.093Z,44.07
2023-03-17T16:23:36.973Z,44.38
2023-03-17T16:26:14.815Z,44.47
2023-03-17T16:28:47.790Z,44.94
2023-03-17T16:31:25.653Z,45.49
2023-03-17T16:33:54.531Z,45.55
2023-03-17T16:36:24.452Z,45.84
2023-03-17T16:38:52.876Z,46.18
2023-03-17T16:41:24.661Z,46.23
2023-03-17T16:43:58.934Z,46.49
2023-03-17T16:46:34.051Z,46.92
2023-03-17T16:49:04.211Z,47.14
2023-03-17T16:51:32.027Z,47.40
2023-03-17T16:53:59.843Z,48.00
2023-03-17T16:56:28.182Z,48.05
2023-03-17T16:58:56.163Z,48.42
2023-03-17T17:01:27.116Z,48.68
2023-03-17T17:03:56.064Z,48.69
2023-03-17T17:06:24.581Z,48.81
2023-03-17T17:08:52.394Z,48.98
2023-03-17T17:11:20.866Z,49.23
2023-03-17T17:13:49.472Z,49.42
2023-03-17T17:16:30.727Z,49.67
2023-03-17T17:18:59.955Z,49.81
2023-03-17T17:21:28.464Z,49.99
2023-03-17T17:23:57.136Z,50.40
2023-03-17T17:26:24.930Z,50.34
2023-03-17T17:28:53.156Z,50.69
2023-03-17T17:31:21.155Z,50.77
2023-03-17T17:33:49.119Z,50.91
2023-03-17T17:36:17.913Z,51.34
2023-03-17T17:38:46.464Z,51.33
2023-03-17T17:41:14.365Z,51.37
2023-03-17T17:43:42.365Z,51.84
2023-03-17T17:46:12.715Z,51.88
2023-03-17T17:48:41.211Z,52.05
2023-03-17T17:51:09.255Z,52.37
2023-03-17T17:53:37.177Z,52.44
2023-03-17T17:56:05.219Z,52.70
2023-03-17T17:58:33.329Z,52.83
2023-03-17T18:01:01.909Z,53.04
2023-03-17T18:03:32.053Z,53.02
2023-03-17T18:06:01.021Z,52.96
2023-03-17T18:08:29.155Z,53.39
2023-03-17T18:10:57.429Z,53.47
2023-03-17T18:13:25.816Z,53.19
2023-03-17T18:15:53.717Z,53.51
2023-03-17T18:18:21.746Z,53.41
2023-03-17T18:20:49.797Z,53.52
2023-03-17T18:23:17.829Z,53.71
2023-03-17T18:25:45.839Z,53.76
2023-03-17T18:28:13.765Z,53.91
2023-03-17T18:30:43.427Z,53.73
2023-03-17T18:33:16.523Z,53.69
2023-03-17T18:35:47.385Z,54.15
2023-03-17T18:38:15.535Z,54.19
2023-03-17T18:40:44.132Z,54.12
2023-03-17T18:43:12.031Z,54.25
2023-03-17T18:45:39.993Z,54.40
2023-03-17T18:48:07.947Z,54.32
2023-03-17T18:50:37.173Z,54.19
2023-03-17T18:53:05.165Z,54.56
2023-03-17T18:55:33.162Z,54.41
2023-03-17T18:58:01.116Z,54.75
2023-03-17T19:00:29.181Z,54.81
2023-03-17T19:02:57.251Z,55.01
2023-03-17T19:05:25.740Z,55.65
2023-03-17T19:07:53.618Z,55.81
2023-03-17T19:10:21.986Z,55.70
2023-03-17T19:12:50.768Z,55.53
2023-03-17T19:15:19.680Z,56.12
2023-03-17T19:17:47.833Z,56.08
2023-03-17T19:20:15.665Z,56.25
2023-03-17T19:22:43.490Z,56.53
2023-03-17T19:25:11.591Z,56.46
2023-03-17T19:27:40.381Z,56.88
2023-03-17T19:30:09.414Z,56.44
2023-03-17T19:32:37.352Z,57.02
2023-03-17T19:35:07.608Z,56.79
2023-03-17T19:37:36.595Z,57.13
2023-03-17T19:40:08.182Z,57.26
2023-03-17T19:42:36.683Z,57.39
2023-03-17T19:45:05.431Z,57.38
2023-03-17T19:47:33.658Z,57.99
2023-03-17T19:50:01.888Z,57.76
2023-03-17T19:52:29.842Z,58.15
2023-03-17T19:54:58.014Z,58.12
2023-03-17T19:57:27.180Z,58.04
2023-03-17T19:59:55.181Z,58.21
2023-03-17T20:02:23.047Z,58.57
2023-03-17T20:04:51.552Z,58.28
2023-03-17T20:07:19.527Z,58.44
2023-03-17T20:09:48.765Z,58.53
2023-03-17T20:12:17.152Z,59.01
2023-03-17T20:14:45.043Z,59.20
2023-03-17T20:17:14.643Z,59.22
2023-03-17T20:19:42.408Z,59.14
2023-03-17T20:22:11.037Z,59.09
2023-03-17T20:24:38.865Z,59.38
2023-03-17T20:27:08.071Z,59.44
2023-03-17T20:29:36.584Z,59.25
2023-03-17T20:32:04.819Z,59.33
2023-03-17T20:34:35.010Z,59.36
2023-03-17T20:37:02.912Z,59.52
2023-03-17T20:39:32.524Z,59.63
2023-03-17T20:42:01.764Z,59.89
2023-03-17T20:44:30.417Z,59.83
2023-03-17T20:46:58.309Z,60.06
2023-03-17T20:49:26.760Z,59.72
2023-03-17T20:51:54.590Z,59.96
2023-03-17T20:54:23.389Z,59.82
2023-03-17T20:56:56.802Z,59.74
2023-03-17T20:59:24.860Z,59.93
2023-03-17T21:01:53.027Z,60.08
2023-03-17T21:04:21.405Z,59.78
2023-03-17T21:06:49.791Z,59.85
2023-03-17T21:09:17.909Z,59.92
2023-03-17T21:11:46.033Z,59.64
2023-03-17T21:14:13.867Z,59.74
2023-03-17T21:16:42.900Z,59.77
2023-03-17T21:19:14.582Z,60.00
2023-03-17T21:21:43.195Z,59.71
2023-03-17T21:24:24.388Z,59.70
2023-03-17T21:26:52.311Z,59.78
2023-03-17T21:29:21.480Z,59.75
2023-03-17T21:31:49.755Z,59.55
2023-03-17T21:34:18.029Z,59.51
2023-03-17T21:36:46.142Z,59.90
2023-03-17T21:39:14.097Z,59.83
2023-03-17T21:41:41.994Z,59.77
2023-03-17T21:44:12.060Z,59.80
2023-03-17T21:46:39.894Z,59.54
2023-03-17T21:49:08.181Z,59.68
2023-03-17T21:51:36.284Z,59.75
2023-03-17T21:54:05.577Z,60.15
2023-03-17T21:56:33.669Z,59.65
2023-03-17T21:59:01.486Z,59.88
2023-03-17T22:01:29.700Z,59.78
2023-03-17T22:03:57.952Z,59.76
2023-03-17T22:06:27.575Z,59.85
2023-03-17T22:08:55.965Z,59.67
2023-03-17T22:11:24.100Z,59.86
2023-03-17T22:13:52.341Z,60.16
2023-03-17T22:16:21.652Z,59.59
2023-03-17T22:18:49.516Z,59.96
2023-03-17T22:21:18.140Z,60.15
2023-03-17T22:23:46.417Z,60.18
2023-03-17T22:26:17.141Z,59.97
2023-03-17T22:28:47.286Z,59.94
2023-03-17T22:31:23.756Z,60.19
2023-03-17T22:33:55.046Z,59.90
2023-03-17T22:36:24.920Z,60.32
2023-03-17T22:38:53.442Z,59.96
2023-03-17T22:41:23.943Z,60.30
2023-03-17T22:43:52.008Z,60.37
2023-03-17T22:46:20.865Z,60.32
2023-03-17T22:48:49.821Z,60.22
2023-03-17T22:51:21.442Z,60.26
2023-03-17T22:53:50.394Z,60.27
2023-03-17T22:56:19.248Z,60.08
2023-03-17T22:58:47.910Z,60.12
2023-03-17T23:01:17.399Z,60.07
2023-03-17T23:03:45.668Z,60.09
2023-03-17T23:06:14.665Z,60.13
2023-03-17T23:08:44.102Z,59.90
2023-03-17T23:11:19.196Z,59.79
2023-03-17T23:13:48.085Z,59.82
2023-03-17T23:16:17.355Z,59.69
2023-03-17T23:18:46.757Z,59.81
2023-03-17T23:21:21.943Z,59.80
2023-03-17T23:23:49.791Z,60.08
2023-03-17T23:26:17.752Z,59.74
2023-03-17T23:28:46.642Z,59.90
2023-03-17T23:31:16.774Z,59.91
2023-03-17T23:33:46.911Z,60.06
2023-03-17T23:36:17.097Z,59.85
2023-03-17T23:38:45.680Z,60.10
2023-03-17T23:41:15.277Z,59.70
2023-03-17T23:43:44.182Z,59.70
2023-03-17T23:46:13.983Z,59.67
2023-03-17T23:48:42.993Z,59.95
2023-03-17T23:51:12.711Z,59.85
2023-03-17T23:53:41.865Z,59.73
2023-03-17T23:56:11.596Z,59.67
2023-03-17T23:58:42.540Z,59.45
